Data for 02/22/2013

Time Sea-Level Adjusted Pressure Absolute Pressure Temperature Relative Humidity Dew Point   
(mb) (inHg) (mb) (inHg) (C) (F) (%) (C) (F)
00:05 1013 29.91 842 24.86 -4.4 24.1 56 -11.9 10.6
00:10 1013 29.91 842 24.86 -4.4 24.1 56 -11.9 10.6
00:15 1013 29.91 842 24.86 -4.4 24 56 -12 10.4
00:20 1013 29.91 842 24.86 -4.4 24.1 56 -11.9 10.6
00:25 1013 29.91 842 24.86 -4.4 24.1 58 -11.6 11.1
00:30 1013 29.91 842 24.86 -4.4 24.1 58 -11.4 11.4
00:35 1013 29.91 842 24.86 -4.4 24.1 58 -11.4 11.5
00:40 1013 29.91 842 24.86 -4.6 23.7 57 -11.8 10.7
00:45 1013 29.91 842 24.86 -4.8 23.4 57 -12 10.3
00:50 1013 29.91 842 24.86 -4.9 23.2 56 -12.5 9.5
00:55 1013 29.91 842 24.86 -4.9 23.2 56 -12.3 9.9
01:00 1013 29.91 842 24.86 -4.9 23.3 57 -12 10.3
01:05 1013 29.91 842 24.86 -5 23.1 59 -11.9 10.6
01:10 1013 29.91 842 24.86 -5 23 57 -12.2 10.1
01:15 1013 29.91 842 24.86 -5 23 58 -11.9 10.5
01:20 1013 29.91 842 24.86 -5.1 22.8 60 -11.8 10.8
01:25 1013 29.91 842 24.86 -5.4 22.3 60 -12 10.3
01:30 1013 29.91 842 24.86 -5.4 22.3 60 -12 10.4
01:35 1013 29.91 842 24.86 -5.2 22.7 60 -11.9 10.7
01:40 1013 29.91 842 24.86 -5.1 22.8 62 -11.4 11.6
01:45 1013 29.91 842 24.86 -5.2 22.7 63 -11.2 11.9
01:50 1013 29.91 842 24.86 -5.2 22.6 60 -11.7 10.9
01:55 1013 29.91 842 24.86 -5 23 60 -11.7 11
02:00 1013 29.91 843 24.89 -4.9 23.2 60 -11.6 11.2
02:05 1013 29.91 843 24.89 -5.1 22.9 60 -11.7 10.9
02:10 1013 29.91 843 24.89 -5 22.9 59 -11.8 10.8
02:15 1013 29.91 843 24.89 -4.9 23.1 59 -11.7 11
02:20 1013 29.91 843 24.89 -4.8 23.3 61 -11.3 11.7
02:25 1013 29.91 843 24.89 -4.9 23.3 63 -10.9 12.4
02:30 1013 29.91 843 24.89 -5.1 22.8 63 -11.1 12
02:35 1013 29.91 843 24.89 -5.3 22.5 63 -11.2 11.8
02:40 1013 29.91 843 24.89 -5.3 22.5 62 -11.4 11.5
02:45 1013 29.91 843 24.89 -5.3 22.5 62 -11.6 11.2
02:50 1014 29.94 843 24.89 -5.2 22.7 62 -11.3 11.6
02:55 1014 29.94 843 24.89 -5.1 22.9 62 -11.4 11.6
03:00 1014 29.94 843 24.89 -5 22.9 63 -11.1 12.1
03:05 1014 29.94 843 24.89 -5.1 22.9 62 -11.3 11.7
03:10 1014 29.94 843 24.89 -5.1 22.9 62 -11.2 11.8
03:15 1014 29.94 843 24.89 -5.3 22.5 64 -11.1 11.9
03:20 1014 29.94 843 24.89 -5.4 22.3 65 -11 12.3
03:25 1014 29.94 843 24.89 -5.4 22.3 65 -11 12.1
03:30 1014 29.94 843 24.89 -5.4 22.4 65 -11 12.3
03:35 1014 29.94 843 24.89 -5.3 22.5 64 -11.1 12.1
03:40 1014 29.94 843 24.89 -5.2 22.6 65 -10.8 12.6
03:45 1014 29.94 843 24.89 -5.2 22.6 65 -10.8 12.6
03:50 1014 29.94 843 24.89 -5.2 22.7 64 -10.9 12.4
03:55 1014 29.94 843 24.89 -5.1 22.8 65 -10.7 12.7
04:00 1014 29.94 843 24.89 -5.2 22.7 65 -10.9 12.4
04:05 1014 29.94 843 24.89 -5.2 22.7 66 -10.6 12.9
04:10 1014 29.94 843 24.89 -4.9 23.1 64 -10.7 12.7
04:15 1014 29.94 843 24.89 -5 23 73 -9 15.8
04:20 1014 29.94 843 24.89 -4.9 23.1 75 -8.7 16.4
04:25 1014 29.94 843 24.89 -4.9 23.2 73 -9 15.8
04:30 1014 29.94 843 24.89 -4.9 23.2 75 -8.7 16.3
04:35 1014 29.94 843 24.89 -4.9 23.2 75 -8.7 16.4
04:40 1014 29.94 843 24.89 -4.9 23.2 75 -8.6 16.6
04:45 1014 29.94 843 24.89 -4.8 23.3 77 -8.3 17.1
04:50 1014 29.94 843 24.89 -4.7 23.5 76 -8.3 17
04:55 1014 29.94 843 24.89 -4.7 23.6 70 -9.4 15.1
05:00 1014 29.94 843 24.89 -4.5 23.8 71 -9.1 15.6
05:05 1014 29.94 843 24.89 -4.7 23.5 76 -8.4 16.9
05:10 1014 29.94 843 24.89 -4.8 23.4 74 -8.7 16.3
05:15 1014 29.94 843 24.89 -4.7 23.6 74 -8.5 16.6
05:20 1014 29.94 843 24.89 -4.5 23.8 74 -8.5 16.7
05:25 1014 29.94 843 24.89 -4.5 23.9 73 -8.5 16.6
05:30 1014 29.94 843 24.89 -4.5 23.9 70 -9.2 15.4
05:35 1014 29.94 843 24.89 -4.3 24.2 67 -9.5 14.9
05:40 1014 29.94 843 24.89 -4.3 24.3 68 -9.4 15.1
05:45 1014 29.94 843 24.89 -4.3 24.2 68 -9.4 15.1
05:50 1014 29.94 843 24.89 -4.3 24.2 67 -9.6 14.7
05:55 1014 29.94 843 24.89 -4.4 24 66 -9.8 14.4
06:00 1014 29.94 843 24.89 -4.6 23.7 66 -9.9 14.1
06:05 1014 29.94 843 24.89 -4.6 23.7 67 -9.9 14.1
06:10 1014 29.94 843 24.89 -4.6 23.6 66 -10 13.9
06:15 1014 29.94 843 24.89 -4.6 23.8 66 -10 14
06:20 1014 29.94 843 24.89 -4.5 24 65 -10.1 13.7
06:25 1014 29.94 843 24.89 -4.3 24.3 63 -10.2 13.6
06:30 1014 29.94 843 24.89 -4.1 24.6 62 -10.3 13.5
06:35 1014 29.94 843 24.89 -4 24.7 63 -10.1 13.8
06:40 1014 29.94 843 24.89 -4.1 24.7 63 -10.1 13.8
06:45 1014 29.94 843 24.89 -4.1 24.6 63 -10.2 13.6
06:50 1014 29.94 843 24.89 -4.1 24.5 63 -10.1 13.8
06:55 1014 29.94 843 24.89 -4.2 24.5 63 -10.2 13.7
07:00 1014 29.94 843 24.89 -4.1 24.7 63 -10.2 13.6
07:05 1014 29.94 843 24.89 -4 24.8 62 -10.2 13.7
07:10 1014 29.94 843 24.89 -4 24.8 62 -10.2 13.7
07:15 1014 29.94 843 24.89 -4 24.8 62 -10.2 13.6
07:20 1014 29.94 843 24.89 -3.9 24.9 61 -10.4 13.2
07:25 1014 29.94 843 24.89 -3.9 25 60 -10.5 13
07:30 1014 29.94 843 24.89 -3.8 25.1 60 -10.5 13.1
07:35 1014 29.94 843 24.89 -3.9 25 60 -10.5 13.1
07:40 1014 29.94 843 24.89 -3.9 25 59 -10.7 12.7
07:45 1014 29.94 843 24.89 -3.8 25.1 59 -10.7 12.8
07:50 1014 29.94 843 24.89 -3.9 25.1 60 -10.6 12.9
07:55 1014 29.94 843 24.89 -3.9 25 59 -10.8 12.5
08:00 1014 29.94 843 24.89 -3.9 25 59 -10.8 12.5
08:05 1014 29.94 843 24.89 -3.9 25 57 -11.1 12
08:10 1014 29.94 843 24.89 -3.8 25.1 57 -11.2 11.8
08:15 1014 29.94 844 24.92 -3.7 25.3 55 -11.5 11.4
08:20 1014 29.94 844 24.92 -3.7 25.3 55 -11.6 11.2
08:25 1014 29.94 844 24.92 -3.7 25.3 54 -11.7 10.9
08:30 1014 29.94 844 24.92 -3.7 25.3 55 -11.6 11.2
08:35 1014 29.94 844 24.92 -3.8 25.3 53 -11.9 10.5
08:40 1014 29.94 844 24.92 -3.6 25.5 52 -12 10.3
08:45 1014 29.94 844 24.92 -3.4 25.9 51 -12.1 10.3
08:50 1014 29.94 844 24.92 -3.3 26.1 50 -12.3 9.9
08:55 1014 29.94 844 24.92 -3.1 26.4 49 -12.4 9.8
09:00 1014 29.94 844 24.92 -3 26.5 49 -12.2 10
09:05 1014 29.94 844 24.92 -3 26.6 49 -12.4 9.7
09:10 1014 29.94 844 24.92 -3 26.6 50 -12.2 10.1
09:15 1014 29.94 844 24.92 -3.1 26.4 49 -12.3 9.9
09:20 1014 29.94 844 24.92 -3.1 26.5 48 -12.6 9.4
09:25 1014 29.94 844 24.92 -3.1 26.5 49 -12.4 9.7
09:30 1014 29.94 844 24.92 -3 26.6 49 -12.4 9.6
09:35 1014 29.94 844 24.92 -3 26.7 48 -12.4 9.6
09:40 1014 29.94 843 24.89 -3 26.5 50 -12.2 10.1
09:45 1014 29.94 843 24.89 -3.3 26 52 -11.8 10.7
09:50 1014 29.94 843 24.89 -3.4 26 50 -12.3 9.9
09:55 1014 29.94 843 24.89 -3.3 26 51 -12 10.4
10:00 1014 29.94 843 24.89 -3.5 25.8 50 -12.5 9.5
10:05 1014 29.94 843 24.89 -3.3 26.1 46 -13.4 7.9
10:10 1014 29.94 843 24.89 -2.9 26.8 46 -13 8.6
10:15 1014 29.94 843 24.89 -2.9 26.8 45 -13.3 8.1
10:20 1014 29.94 843 24.89 -2.4 27.7 45 -12.6 9.2
10:25 1014 29.94 843 24.89 -1.9 28.5 44 -12.8 9
10:30 1014 29.94 843 24.89 -1.7 28.9 43 -12.8 8.9
10:35 1014 29.94 843 24.89 -2.3 27.8 46 -12.4 9.6
10:40 1014 29.94 843 24.89 -2.3 27.9 45 -12.6 9.3
10:45 1014 29.94 843 24.89 -2.4 27.8 46 -12.5 9.4
10:50 1014 29.94 843 24.89 -2.2 28 47 -12.2 10.1
10:55 1014 29.94 843 24.89 -1.7 28.9 45 -12.3 9.9
11:00 1014 29.94 843 24.89 -1.5 29.3 44 -12.1 10.2
11:05 1014 29.94 843 24.89 -1 30.2 44 -11.8 10.8
11:10 1014 29.94 843 24.89 -0.7 30.7 43 -11.9 10.6
11:15 1014 29.94 843 24.89 -0.8 30.6 41 -12.3 9.8
11:20 1014 29.94 843 24.89 -0.2 31.6 43 -11.3 11.6
11:25 1014 29.94 843 24.89 0.3 32.6 41 -11.4 11.5
11:30 1014 29.94 843 24.89 0.5 32.8 42 -11.1 12
11:35 1014 29.94 843 24.89 0.9 33.6 41 -10.9 12.4
11:40 1014 29.94 843 24.89 0.9 33.7 41 -10.9 12.4
11:45 1014 29.94 843 24.89 0.7 33.2 42 -10.8 12.6
11:50 1014 29.94 843 24.89 0.7 33.3 42 -10.9 12.4
11:55 1014 29.94 843 24.89 0.9 33.6 42 -10.7 12.7
12:00 1014 29.94 843 24.89 1.2 34.1 42 -10.3 13.4
12:05 1014 29.94 843 24.89 1.3 34.4 40 -10.7 12.7
12:10 1014 29.94 843 24.89 1.7 35 40 -10.5 13.1
12:15 1014 29.94 843 24.89 2 35.6 40 -10.2 13.7
12:20 1014 29.94 843 24.89 1.9 35.4 38 -11.1 12.1
12:25 1014 29.94 843 24.89 1.3 34.3 38 -11.6 11.1
12:30 1014 29.94 843 24.89 1.2 34.1 38 -11.6 11.2
12:35 1014 29.94 843 24.89 1.4 34.5 36 -12.1 10.2
12:40 1014 29.94 843 24.89 1.8 35.3 37 -11.5 11.2
12:45 1014 29.94 843 24.89 1.7 35.1 36 -11.7 10.9
12:50 1013 29.91 843 24.89 1.8 35.3 38 -11.2 11.8
12:55 1013 29.91 842 24.86 1.5 34.7 34 -12.6 9.2
13:00 1013 29.91 842 24.86 1.6 34.9 35 -12.3 9.8
13:05 1013 29.91 842 24.86 1.6 35 38 -11.2 11.8
13:10 1013 29.91 842 24.86 1.8 35.3 37 -11.2 11.8
13:15 1013 29.91 842 24.86 2 35.6 34 -12.1 10.2
13:20 1013 29.91 842 24.86 2.1 35.8 35 -11.9 10.5
13:25 1013 29.91 842 24.86 2 35.6 34 -12.3 9.9
13:30 1013 29.91 842 24.86 2 35.6 35 -11.8 10.7
13:35 1013 29.91 842 24.86 2.1 35.7 34 -12.4 9.7
13:40 1013 29.91 842 24.86 2.1 35.8 33 -12.5 9.6
13:45 1012 29.88 842 24.86 2.2 36 35 -11.8 10.7
13:50 1012 29.88 842 24.86 2.1 35.9 35 -11.9 10.7
13:55 1012 29.88 841 24.83 2.2 36 34 -12 10.4
14:00 1012 29.88 841 24.83 2.5 36.6 34 -11.9 10.7
14:05 1012 29.88 841 24.83 3 37.4 33 -11.9 10.6
14:10 1012 29.88 841 24.83 2.9 37.3 33 -11.8 10.8
14:15 1012 29.88 841 24.83 2.9 37.2 33 -12 10.4
14:20 1012 29.88 841 24.83 2.7 36.9 33 -11.8 10.7
14:25 1012 29.88 841 24.83 2.8 37.1 34 -11.6 11.1
14:30 1012 29.88 841 24.83 2.9 37.3 33 -11.7 11
14:35 1011 29.85 841 24.83 3.2 37.7 33 -11.7 11
14:40 1011 29.85 840 24.81 2.9 37.2 33 -11.7 11
14:45 1011 29.85 840 24.81 3.2 37.8 34 -11 12.2
14:50 1011 29.85 840 24.81 3.4 38.2 33 -11.4 11.5
14:55 1011 29.85 840 24.81 3.8 38.9 34 -10.8 12.5
15:00 1011 29.85 840 24.81 3.8 38.9 33 -11.1 12.1
15:05 1011 29.85 840 24.81 3.6 38.4 34 -11 12.2
15:10 1011 29.85 840 24.81 3.6 38.4 33 -11.3 11.7
15:15 1011 29.85 840 24.81 3.7 38.7 34 -10.9 12.3
15:20 1011 29.85 840 24.81 3.9 39 33 -10.9 12.5
15:25 1011 29.85 840 24.81 3.9 39 34 -10.6 12.8
15:30 1011 29.85 840 24.81 3.3 37.9 35 -10.6 12.9
15:35 1011 29.85 840 24.81 3.2 37.7 36 -10.5 13
15:40 1011 29.85 840 24.81 2.9 37.2 37 -10.5 13.2
15:45 1011 29.85 840 24.81 2.6 36.7 37 -10.6 12.9
15:50 1011 29.85 840 24.81 2.7 36.9 37 -10.6 12.8
15:55 1011 29.85 840 24.81 2.6 36.7 38 -10.5 13.1
16:00 1011 29.85 840 24.81 2.5 36.5 38 -10.4 13.2
16:05 1011 29.85 840 24.81 2.4 36.3 37 -10.8 12.5
16:10 1011 29.85 840 24.81 2.3 36.1 38 -10.8 12.6
16:15 1011 29.85 840 24.81 2.1 35.8 37 -11.1 12
16:20 1010 29.83 840 24.81 2.5 36.5 37 -10.9 12.4
16:25 1010 29.83 840 24.81 2.7 36.9 38 -10.2 13.6
16:30 1010 29.83 840 24.81 3.1 37.5 35 -11 12.2
16:35 1010 29.83 839 24.78 2.9 37.2 36 -10.7 12.8
16:40 1010 29.83 839 24.78 2.9 37.2 37 -10.6 13
16:45 1010 29.83 839 24.78 2.7 36.8 36 -10.8 12.5
16:50 1010 29.83 839 24.78 2.6 36.6 37 -10.8 12.5
16:55 1010 29.83 839 24.78 3 37.4 36 -10.6 12.9
17:00 1010 29.83 839 24.78 3.1 37.6 37 -10.3 13.4
17:05 1010 29.83 839 24.78 2.9 37.3 36 -10.7 12.8
17:10 1010 29.83 839 24.78 3.2 37.7 37 -10.2 13.6
17:15 1010 29.83 839 24.78 3.1 37.6 36 -10.7 12.8
17:20 1010 29.83 839 24.78 3.1 37.5 35 -10.9 12.4
17:25 1010 29.83 839 24.78 2.7 36.9 36 -11 12.3
17:30 1010 29.83 839 24.78 2.7 36.9 36 -11 12.2
17:35 1010 29.83 839 24.78 2.7 36.8 35 -11.4 11.4
17:40 1010 29.83 839 24.78 2.7 36.9 35 -11.1 11.9
17:45 1009 29.8 839 24.78 2.8 37.1 36 -10.7 12.8
17:50 1009 29.8 839 24.78 2.9 37.3 36 -10.8 12.6
17:55 1009 29.8 839 24.78 2.6 36.7 38 -10.3 13.4
18:00 1009 29.8 838 24.75 2.7 36.9 37 -10.5 13.2
18:05 1009 29.8 838 24.75 2.5 36.5 38 -10.3 13.5
18:10 1009 29.8 838 24.75 2.6 36.7 37 -10.6 12.9
18:15 1009 29.8 838 24.75 2.4 36.3 38 -10.5 13.2
18:20 1009 29.8 838 24.75 2.2 35.9 38 -10.7 12.8
18:25 1009 29.8 838 24.75 2.2 36 37 -11 12.2
18:30 1009 29.8 838 24.75 2.3 36.1 38 -10.7 12.8
18:35 1009 29.8 838 24.75 1.8 35.2 42 -9.9 14.3
18:40 1009 29.8 838 24.75 0.8 33.5 43 -10.3 13.4
18:45 1009 29.8 838 24.75 0.7 33.3 43 -10.6 12.9
18:50 1009 29.8 838 24.75 0.8 33.4 43 -10.4 13.2
18:55 1009 29.8 838 24.75 0.5 33 43 -10.5 13
19:00 1009 29.8 838 24.75 0.4 32.7 44 -10.4 13.3
19:05 1009 29.8 838 24.75 0.5 32.8 42 -11 12.2
19:10 1009 29.8 838 24.75 0.4 32.7 45 -10.3 13.4
19:15 1009 29.8 838 24.75 0.1 32.2 43 -10.9 12.4
19:20 1009 29.8 838 24.75 0.1 32.1 43 -11.2 11.8
19:25 1009 29.8 838 24.75 -0 32 43 -11.3 11.7
19:30 1009 29.8 838 24.75 0 32.1 43 -11 12.2
19:35 1009 29.8 838 24.75 0 32.1 43 -11 12.2
19:40 1009 29.8 838 24.75 0.4 32.7 42 -11.1 11.9
19:45 1009 29.8 838 24.75 0.8 33.4 41 -11.2 11.9
19:50 1009 29.8 838 24.75 0.5 32.9 43 -10.8 12.6
19:55 1009 29.8 838 24.75 0.5 32.9 43 -10.8 12.5
20:00 1009 29.8 838 24.75 0.1 32.2 45 -10.4 13.3
20:05 1009 29.8 838 24.75 -0.1 31.7 46 -10.4 13.4
20:10 1009 29.8 838 24.75 0.1 32.2 45 -10.5 13
20:15 1009 29.8 838 24.75 0.4 32.7 41 -11.3 11.6
20:20 1008 29.77 838 24.75 0.7 33.3 42 -10.7 12.8
20:25 1008 29.77 838 24.75 0.7 33.3 44 -10.3 13.5
20:30 1008 29.77 838 24.75 0.6 33.1 43 -10.5 13.2
20:35 1008 29.77 838 24.75 0.6 33.1 43 -10.5 13.2
20:40 1008 29.77 837 24.72 0.7 33.3 44 -10.1 13.8
20:45 1008 29.77 837 24.72 0.7 33.3 46 -9.7 14.6
20:50 1008 29.77 837 24.72 0.5 32.9 47 -9.5 15
20:55 1008 29.77 837 24.72 0.4 32.7 45 -10.2 13.7
21:00 1008 29.77 837 24.72 0.6 33.1 46 -9.8 14.3
21:05 1008 29.77 837 24.72 0.5 33 48 -9.4 15.1
21:10 1008 29.77 837 24.72 0.2 32.4 48 -9.5 15
21:15 1008 29.77 837 24.72 0.2 32.4 49 -9.2 15.5
21:20 1008 29.77 837 24.72 0.2 32.4 49 -9.3 15.3
21:25 1008 29.77 837 24.72 0.2 32.4 49 -9.4 15.1
21:30 1008 29.77 837 24.72 0.2 32.4 49 -9.2 15.4
21:35 1008 29.77 837 24.72 0.2 32.3 49 -9.2 15.4
21:40 1008 29.77 837 24.72 0.2 32.3 52 -8.5 16.8
21:45 1008 29.77 837 24.72 0 32.1 51 -8.9 15.9
21:50 1008 29.77 837 24.72 -0.2 31.7 50 -9.3 15.3
21:55 1008 29.77 837 24.72 -0.3 31.5 50 -9.5 15
22:00 1008 29.77 837 24.72 -0.2 31.6 51 -9.2 15.5
22:05 1008 29.77 837 24.72 -0.3 31.5 50 -9.4 15.1
22:10 1008 29.77 837 24.72 -0.2 31.7 48 -10 14.1
22:15 1008 29.77 837 24.72 0 32 48 -9.8 14.3
22:20 1008 29.77 837 24.72 0 32.1 49 -9.5 14.9
22:25 1008 29.77 837 24.72 -0 32 48 -9.8 14.3
22:30 1008 29.77 837 24.72 -0 32 49 -9.5 14.9
22:35 1008 29.77 837 24.72 0.1 32.2 48 -9.7 14.6
22:40 1008 29.77 837 24.72 0.1 32.1 48 -9.8 14.4
22:45 1008 29.77 837 24.72 0.1 32.2 49 -9.4 15
22:50 1008 29.77 837 24.72 0.1 32.2 49 -9.3 15.2
22:55 1008 29.77 837 24.72 0.5 32.8 47 -9.5 14.9
23:00 1008 29.77 837 24.72 0.7 33.3 48 -9 15.8
23:05 1008 29.77 837 24.72 0.8 33.5 49 -8.7 16.3
23:10 1007 29.74 837 24.72 0.9 33.5 50 -8.3 17
23:15 1007 29.74 837 24.72 0.8 33.5 51 -8.2 17.2
23:20 1007 29.74 837 24.72 0.7 33.3 52 -8.1 17.5
23:25 1007 29.74 837 24.72 0.6 33.2 51 -8.4 16.9
23:30 1007 29.74 837 24.72 0.7 33.3 50 -8.7 16.4
23:35 1008 29.77 837 24.72 0.9 33.7 49 -8.6 16.6
23:40 1008 29.77 837 24.72 1 33.8 48 -8.7 16.3
23:45 1007 29.74 837 24.72 1.1 34 47 -8.9 16
23:50 1007 29.74 837 24.72 1.3 34.3 48 -8.6 16.5
23:55 1007 29.74 836 24.69 1.2 34.2 49 -8.4 16.9
24:00 1007 29.74 836 24.69 1.4 34.4 49 -8.2 17.2